Time;durP1;ratioP1;P1;durP2;ratioP2;P2;SDS_P1;SDS_P2;PMS_P1;PMS_P2;Temp;Humidity;BMP_temperature;BMP_pressure;BME280_temperature;BME280_humidity;BME280_pressure;Samples;Min_cycle;Max_cycle;Signal;HPM_P1;HPM_P2
2021/04/12 00:02:41;;;;;;;7.95;2.70;;;;;;;4.67;100.00;100988.09;5153266;28;20575;-79
2021/04/12 00:05:33;;;;;;;5.88;2.40;;;;;;;4.68;100.00;100994.16;5192507;28;20045;-80
2021/04/12 00:08:36;;;;;;;10.30;2.80;;;;;;;4.65;100.00;100994.19;5191837;28;20030;-79
2021/04/12 00:11:35;;;;;;;10.88;2.78;;;;;;;4.73;100.00;100988.09;5192269;28;20041;-79
2021/04/12 00:14:28;;;;;;;7.03;2.40;;;;;;;4.71;100.00;100995.00;5189819;28;20037;-78
2021/04/12 00:17:28;;;;;;;8.23;2.50;;;;;;;4.74;100.00;101000.16;5191131;28;20059;-80
2021/04/12 00:20:10;;;;;;;7.78;2.30;;;;;;;4.76;100.00;101003.59;5186082;28;20503;-80
2021/04/12 00:22:50;;;;;;;8.90;2.42;;;;;;;4.76;100.00;101007.91;5190998;28;20112;-79
2021/04/12 00:25:51;;;;;;;7.35;2.30;;;;;;;4.71;100.00;101009.66;5191448;28;20057;-80
2021/04/12 00:28:36;;;;;;;7.40;2.50;;;;;;;4.73;100.00;101011.38;5192403;28;20142;-80
2021/04/12 00:31:13;;;;;;;6.45;2.40;;;;;;;4.72;100.00;101006.22;5193773;28;20029;-79
2021/04/12 00:33:54;;;;;;;7.68;2.55;;;;;;;4.81;100.00;101021.72;5191738;28;20095;-80
2021/04/12 00:36:32;;;;;;;6.32;2.42;;;;;;;4.63;100.00;101027.81;5192674;28;20479;-79
2021/04/12 00:39:14;;;;;;;8.40;2.88;;;;;;;4.72;100.00;101030.38;5191089;28;20040;-80
2021/04/12 00:42:09;;;;;;;6.07;2.50;;;;;;;4.73;100.00;101036.41;5191995;28;20053;-80
2021/04/12 00:45:10;;;;;;;8.02;2.17;;;;;;;4.67;100.00;101042.47;5190189;28;20041;-79
2021/04/12 00:48:05;;;;;;;5.63;2.10;;;;;;;4.66;100.00;101037.31;5191291;28;20512;-79
2021/04/12 00:51:14;;;;;;;7.60;2.53;;;;;;;4.82;100.00;101047.56;5192410;28;20045;-79
2021/04/12 00:54:02;;;;;;;6.55;1.73;;;;;;;4.67;99.95;101054.56;5098244;28;20662;-80
2021/04/12 00:56:40;;;;;;;7.43;2.38;;;;;;;4.67;100.00;101050.22;5173699;28;20087;-80
2021/04/12 00:59:47;;;;;;;9.02;2.20;;;;;;;4.65;99.86;101044.19;5185223;28;20042;-80
2021/04/12 01:02:30;;;;;;;6.13;2.00;;;;;;;4.58;100.00;101047.69;5188884;28;20519;-78
2021/04/12 01:05:39;;;;;;;7.28;2.47;;;;;;;4.45;99.75;101048.59;5188634;28;20041;-80
2021/04/12 01:08:36;;;;;;;5.68;2.50;;;;;;;4.42;100.00;101053.78;5190379;28;20108;-79
2021/04/12 01:11:25;;;;;;;8.45;2.50;;;;;;;4.47;100.00;101049.44;5195371;28;20112;-80
2021/04/12 01:14:24;;;;;;;8.20;2.95;;;;;;;4.52;100.00;101055.50;5187914;28;20033;-78
2021/04/12 01:17:13;;;;;;;6.20;2.75;;;;;;;4.45;100.00;101052.94;5182765;28;20033;-77
2021/04/12 01:20:02;;;;;;;9.20;2.40;;;;;;;4.46;100.00;101057.25;5182977;28;20029;-79
2021/04/12 01:23:00;;;;;;;5.63;2.45;;;;;;;4.38;99.65;101059.84;5176195;28;20638;-79
2021/04/12 01:25:53;;;;;;;8.05;2.70;;;;;;;4.42;100.00;101073.59;5170589;28;20033;-78
2021/04/12 01:28:45;;;;;;;8.00;2.60;;;;;;;4.46;100.00;101083.09;5170956;28;20052;-80
2021/04/12 01:31:49;;;;;;;9.35;2.60;;;;;;;4.46;100.00;101083.94;5170963;28;20533;-80
2021/04/12 01:34:53;;;;;;;7.70;2.65;;;;;;;4.41;100.00;101085.69;5164136;28;20513;-77
2021/04/12 01:37:35;;;;;;;7.97;2.88;;;;;;;4.47;100.00;101084.84;5153960;28;20063;-79
2021/04/12 01:40:30;;;;;;;7.68;2.70;;;;;;;4.51;100.00;101082.22;5153730;28;20119;-80
2021/04/12 01:43:06;;;;;;;8.32;2.85;;;;;;;4.48;100.00;101073.63;5158807;28;20037;-80
2021/04/12 01:45:57;;;;;;;8.15;2.67;;;;;;;4.49;100.00;101080.50;5164878;28;20037;-80
2021/04/12 01:48:55;;;;;;;7.97;2.92;;;;;;;4.30;100.00;101084.00;5159811;28;20065;-80
2021/04/12 01:52:05;;;;;;;8.25;2.42;;;;;;;4.16;100.00;101086.59;5160511;28;20487;-81
2021/04/12 01:54:41;;;;;;;7.60;2.33;;;;;;;4.11;100.00;101078.00;5166332;28;20054;-78
2021/04/12 01:57:42;;;;;;;8.68;2.38;;;;;;;3.97;100.00;101100.41;5176157;28;20037;-80
2021/04/12 02:00:16;;;;;;;8.05;2.45;;;;;;;4.06;100.00;101113.34;5166528;28;20040;-78
2021/04/12 02:03:04;;;;;;;9.27;2.20;;;;;;;4.02;100.00;101103.88;5173445;28;20357;-79
2021/04/12 02:06:01;;;;;;;7.60;2.28;;;;;;;3.98;100.00;101091.81;5175514;28;20041;-80
2021/04/12 02:08:31;;;;;;;;;;;;;;;4.03;100.00;101092.69;5172634;28;20107;-78
2021/04/12 02:11:11;;;;;;;6.22;2.40;;;;;;;4.16;100.00;101102.13;5179991;28;19917;-81
2021/04/12 02:14:00;;;;;;;5.80;1.90;;;;;;;4.11;100.00;101114.19;5178754;28;20053;-78
2021/04/12 02:16:45;;;;;;;8.57;2.03;;;;;;;4.19;100.00;101117.66;5187215;28;20119;-80
2021/04/12 02:19:33;;;;;;;5.97;1.98;;;;;;;4.21;99.21;101126.28;5188340;28;20040;-79
2021/04/12 02:22:22;;;;;;;7.35;2.25;;;;;;;4.29;99.89;101123.69;5188157;28;20109;-79
2021/04/12 02:25:01;;;;;;;6.97;1.90;;;;;;;4.35;99.36;101124.53;5171695;28;20034;-78
2021/04/12 02:27:31;;;;;;;5.13;1.90;;;;;;;4.35;99.96;101129.72;5187799;28;20029;-80
2021/04/12 02:30:16;;;;;;;7.68;1.98;;;;;;;4.23;98.64;101128.84;5187864;28;20040;-80
2021/04/12 02:33:05;;;;;;;3.83;1.40;;;;;;;4.15;99.92;101126.25;5186831;28;20439;-77
2021/04/12 02:35:54;;;;;;;5.85;1.80;;;;;;;4.05;99.71;101129.75;5192834;28;20056;-79
2021/04/12 02:38:45;;;;;;;5.63;1.77;;;;;;;4.17;100.00;101134.91;5191824;28;21027;-80
2021/04/12 02:41:32;;;;;;;4.43;1.98;;;;;;;4.14;99.50;101137.47;5190953;28;20434;-79
2021/04/12 02:44:11;;;;;;;7.55;2.10;;;;;;;4.20;100.00;101129.72;5189309;28;20034;-80
2021/04/12 02:47:00;;;;;;;8.85;2.33;;;;;;;4.20;100.00;101136.63;5191384;28;20052;-79
2021/04/12 02:49:53;;;;;;;7.15;2.38;;;;;;;4.10;99.22;101142.69;5195573;28;20043;-81
2021/04/12 02:52:41;;;;;;;8.20;2.28;;;;;;;4.12;99.84;101152.13;5194986;28;20038;-80
2021/04/12 02:55:48;;;;;;;5.93;2.10;;;;;;;4.21;99.04;101151.25;5195490;28;20120;-81
2021/04/12 02:58:36;;;;;;;6.30;1.95;;;;;;;4.06;99.33;101146.97;5196191;28;20661;-80
2021/04/12 03:01:57;;;;;;;7.38;2.17;;;;;;;3.90;99.43;101153.00;5197020;28;20034;-81
2021/04/12 03:04:57;;;;;;;6.30;2.13;;;;;;;4.00;100.00;101147.00;5147378;28;20045;-80
2021/04/12 03:07:52;;;;;;;9.98;2.30;;;;;;;3.97;99.77;101141.78;5196502;28;20045;-80
2021/04/12 03:10:30;;;;;;;7.70;1.90;;;;;;;3.98;99.41;101151.28;5197062;28;20033;-79
2021/04/12 03:13:21;;;;;;;8.15;1.92;;;;;;;3.94;100.00;101146.97;5193398;28;20052;-80
2021/04/12 03:16:08;;;;;;;8.02;2.13;;;;;;;3.93;100.00;101158.16;5190650;28;20040;-79
2021/04/12 03:19:00;;;;;;;5.50;2.10;;;;;;;3.93;99.92;101165.09;5190599;28;20037;-81
2021/04/12 03:22:00;;;;;;;6.78;2.08;;;;;;;3.91;99.87;101166.78;5193314;28;20038;-81
2021/04/12 03:25:01;;;;;;;11.50;1.95;;;;;;;3.86;99.42;101160.75;5191310;28;20471;-81
2021/04/12 03:27:40;;;;;;;6.22;1.67;;;;;;;3.75;99.77;101163.34;5192058;28;20808;-81
2021/04/12 03:30:25;;;;;;;10.80;2.20;;;;;;;3.68;99.65;101173.66;5191507;28;20667;-78
2021/04/12 03:33:12;;;;;;;10.55;2.72;;;;;;;3.59;100.00;101171.91;5190603;28;20045;-81
2021/04/12 03:35:59;;;;;;;7.18;1.92;;;;;;;3.68;100.00;101176.25;5191062;28;20034;-78
2021/04/12 03:38:38;;;;;;;7.43;1.92;;;;;;;3.64;100.00;101188.28;5183042;28;20029;-77
2021/04/12 03:41:14;;;;;;;6.75;1.80;;;;;;;3.74;100.00;101181.41;5191327;28;20187;-81
2021/04/12 03:44:09;;;;;;;9.70;2.17;;;;;;;3.73;99.81;101200.34;5194022;28;20033;-77
2021/04/12 03:47:05;;;;;;;8.30;2.03;;;;;;;3.68;100.00;101200.38;5196022;28;20663;-82
2021/04/12 03:50:02;;;;;;;9.18;2.33;;;;;;;3.60;100.00;101207.22;5192767;28;20033;-80
2021/04/12 03:53:10;;;;;;;9.27;2.30;;;;;;;3.75;99.63;101212.44;5192471;28;20040;-80
2021/04/12 03:56:12;;;;;;;6.65;2.33;;;;;;;3.71;100.00;101217.59;5191803;28;20034;-79
2021/04/12 03:59:07;;;;;;;11.85;2.38;;;;;;;3.89;99.84;101215.91;5187042;28;20045;-80
2021/04/12 04:01:43;;;;;;;9.82;2.60;;;;;;;3.87;99.74;101224.50;5191311;28;20029;-79
2021/04/12 04:04:27;;;;;;;6.32;2.25;;;;;;;3.94;99.97;101206.44;5189819;28;20053;-79
2021/04/12 04:06:57;;;;;;;8.20;2.53;;;;;;;3.65;100.00;101199.50;5191770;28;20112;-79
2021/04/12 04:09:52;;;;;;;13.33;2.97;;;;;;;3.73;100.00;101208.13;5190560;28;20067;-78
2021/04/12 04:12:38;;;;;;;9.20;3.17;;;;;;;3.88;99.84;101203.84;5189019;28;20380;-78
2021/04/12 04:15:50;;;;;;;9.23;3.03;;;;;;;3.77;100.00;101217.63;5189038;28;20041;-80
2021/04/12 04:18:37;;;;;;;10.98;3.20;;;;;;;3.82;100.00;101224.50;5181032;28;20053;-80
2021/04/12 04:21:16;;;;;;;8.70;3.22;;;;;;;3.86;100.00;101220.22;5190351;28;20531;-79
2021/04/12 04:24:08;;;;;;;7.57;2.95;;;;;;;4.00;100.00;101227.16;5186950;28;20029;-80
2021/04/12 04:27:06;;;;;;;9.50;3.10;;;;;;;3.93;99.21;101222.81;5190897;28;20033;-80
2021/04/12 04:30:00;;;;;;;12.40;3.60;;;;;;;3.77;100.00;101233.97;5192690;28;20053;-83
2021/04/12 04:33:08;;;;;;;8.82;3.53;;;;;;;3.85;100.00;101234.88;5177696;28;20037;-82
2021/04/12 04:36:15;;;;;;;11.57;3.85;;;;;;;3.75;100.00;101253.78;5193717;28;20054;-79
2021/04/12 04:39:25;;;;;;;13.80;4.65;;;;;;;3.63;100.00;101258.91;5190512;28;20402;-82
2021/04/12 04:42:10;;;;;;;13.63;4.57;;;;;;;3.76;100.00;101252.09;5193565;28;20044;-80
2021/04/12 04:45:13;;;;;;;8.75;4.15;;;;;;;3.76;100.00;101252.09;5193206;28;20032;-82
2021/04/12 04:48:21;;;;;;;10.07;4.50;;;;;;;3.70;100.00;101254.63;5195233;28;20508;-81
2021/04/12 04:51:00;;;;;;;11.02;4.47;;;;;;;3.88;100.00;101252.97;5194170;28;20033;-81
2021/04/12 04:53:33;;;;;;;10.65;4.85;;;;;;;3.85;100.00;101252.09;5192938;28;20025;-80
2021/04/12 04:56:25;;;;;;;9.77;4.68;;;;;;;3.85;100.00;101254.69;5194481;28;20414;-80
2021/04/12 04:59:07;;;;;;;11.05;4.55;;;;;;;3.89;100.00;101252.09;5191613;28;20571;-81
2021/04/12 05:01:59;;;;;;;11.50;4.78;;;;;;;3.75;100.00;101247.78;5195093;28;20033;-82
2021/04/12 05:05:07;;;;;;;12.05;4.82;;;;;;;3.78;100.00;101258.13;5193215;28;20092;-82
2021/04/12 05:08:03;;;;;;;10.73;4.65;;;;;;;3.73;100.00;101263.25;5194875;28;20037;-81
2021/04/12 05:10:58;;;;;;;17.38;4.88;;;;;;;3.88;100.00;101275.34;5194014;28;20068;-80
2021/04/12 05:13:36;;;;;;;13.93;4.60;;;;;;;3.87;100.00;101282.28;5192422;28;20067;-81
2021/04/12 05:16:33;;;;;;;9.48;4.80;;;;;;;3.76;100.00;101294.28;5190413;28;20488;-81
2021/04/12 05:19:39;;;;;;;15.40;5.20;;;;;;;3.81;100.00;101287.41;5191648;28;20042;-80
2021/04/12 05:22:30;;;;;;;8.13;4.67;;;;;;;3.70;100.00;101291.69;5189801;28;20033;-81
2021/04/12 05:25:30;;;;;;;12.85;4.90;;;;;;;3.90;100.00;101284.84;5190255;28;20395;-82
2021/04/12 05:28:08;;;;;;;10.00;4.72;;;;;;;3.95;100.00;101305.56;5189363;28;20180;-81
2021/04/12 05:31:10;;;;;;;9.65;4.70;;;;;;;4.01;100.00;101313.31;5173220;28;20037;-81
2021/04/12 05:34:00;;;;;;;12.73;5.05;;;;;;;3.81;100.00;101325.31;5190128;28;20030;-82
2021/04/12 05:36:56;;;;;;;11.88;4.55;;;;;;;3.88;100.00;101330.53;5187576;28;20854;-81
2021/04/12 05:40:00;;;;;;;10.63;5.00;;;;;;;3.64;100.00;101335.59;5189748;28;20096;-82
2021/04/12 05:42:49;;;;;;;10.38;4.70;;;;;;;3.75;100.00;101346.00;5188873;28;20037;-80
2021/04/12 05:45:43;;;;;;;11.38;4.90;;;;;;;3.73;100.00;101343.38;5173547;28;20033;-82
2021/04/12 05:48:51;;;;;;;14.65;5.15;;;;;;;4.07;100.00;101354.69;5171557;28;20033;-81
2021/04/12 05:51:53;;;;;;;12.55;4.28;;;;;;;4.13;100.00;101350.41;5164066;28;20037;-81
2021/04/12 05:54:53;;;;;;;11.88;4.97;;;;;;;3.94;100.00;101348.63;5157962;28;20496;-81
2021/04/12 05:57:45;;;;;;;11.32;4.25;;;;;;;3.98;99.90;101355.53;5148173;28;20042;-81
2021/04/12 06:00:47;;;;;;;11.75;4.60;;;;;;;4.04;100.00;101352.09;5147020;28;20034;-82
2021/04/12 06:03:42;;;;;;;11.88;4.55;;;;;;;4.28;98.64;101354.78;5113268;28;20673;-80
2021/04/12 06:06:30;;;;;;;13.65;4.35;;;;;;;4.49;99.32;101360.84;5128663;28;20033;-80
2021/04/12 06:09:29;;;;;;;7.82;4.20;;;;;;;4.73;97.40;101355.69;5119801;28;20030;-81
2021/04/12 06:12:29;;;;;;;16.90;4.30;;;;;;;4.60;96.49;101361.72;5107665;28;20115;-83
2021/04/12 06:15:06;;;;;;;10.88;4.13;;;;;;;4.62;96.73;101372.94;5127830;28;20199;-85
2021/04/12 06:18:01;;;;;;;15.30;3.97;;;;;;;4.70;96.35;101372.94;5131751;28;20030;-82
2021/04/12 06:20:49;;;;;;;11.57;3.90;;;;;;;4.54;96.22;101374.66;5151842;28;21308;-81
2021/04/12 06:23:38;;;;;;;12.30;4.10;;;;;;;4.50;96.89;101370.31;5152414;28;20040;-82
2021/04/12 06:26:36;;;;;;;16.02;3.80;;;;;;;4.59;97.02;101372.94;5159045;28;20460;-81
2021/04/12 06:29:26;;;;;;;10.75;3.85;;;;;;;4.77;96.38;101377.28;5159524;28;20408;-81
2021/04/12 06:32:28;;;;;;;9.55;3.90;;;;;;;4.98;95.37;101379.88;5170808;28;20025;-81
2021/04/12 06:35:17;;;;;;;12.65;3.72;;;;;;;4.86;94.68;101377.28;5174439;28;20041;-81
2021/04/12 06:37:51;;;;;;;12.27;3.92;;;;;;;4.94;95.04;101372.97;5183523;28;20037;-81
2021/04/12 06:40:46;;;;;;;11.27;3.95;;;;;;;4.98;94.71;101377.28;5183649;28;20040;-82
2021/04/12 06:44:09;;;;;;;9.90;3.65;;;;;;;4.75;95.52;101379.84;5191591;28;21340;-82
2021/04/12 06:47:04;;;;;;;13.77;4.60;;;;;;;4.80;94.99;101382.47;5174910;28;20080;-83
2021/04/12 06:49:40;;;;;;;9.23;3.90;;;;;;;4.69;94.70;101385.03;5190263;28;20029;-81
2021/04/12 06:52:41;;;;;;;9.73;3.70;;;;;;;4.64;96.04;101397.09;5192653;28;20045;-82
2021/04/12 06:55:21;;;;;;;9.45;3.38;;;;;;;4.73;95.07;101411.78;5192040;28;20558;-80
2021/04/12 06:58:29;;;;;;;8.52;3.35;;;;;;;4.62;95.66;101410.91;5191971;28;20128;-81
2021/04/12 07:01:24;;;;;;;8.40;3.40;;;;;;;4.60;95.99;101416.06;5191888;28;20033;-82
2021/04/12 07:04:14;;;;;;;8.43;3.60;;;;;;;4.83;95.95;101426.47;5180465;28;20030;-81
2021/04/12 07:06:57;;;;;;;8.77;3.70;;;;;;;4.59;96.28;101424.69;5182387;28;20037;-83
2021/04/12 07:09:42;;;;;;;12.35;3.63;;;;;;;4.70;95.62;101430.78;5171725;28;20037;-81
2021/04/12 07:12:43;;;;;;;11.90;3.60;;;;;;;4.84;94.65;101436.81;5171132;28;20041;-82
2021/04/12 07:15:41;;;;;;;11.52;3.10;;;;;;;4.84;94.14;101431.63;5164701;28;20116;-82
2021/04/12 07:18:12;;;;;;;9.90;3.58;;;;;;;4.92;94.10;101437.69;5158102;28;20108;-82
2021/04/12 07:20:54;;;;;;;9.67;3.13;;;;;;;5.21;93.64;101429.94;5139705;28;20042;-83
2021/04/12 07:23:55;;;;;;;9.07;3.70;;;;;;;5.20;91.91;101438.56;5157231;28;20346;-83
2021/04/12 07:26:59;;;;;;;8.07;2.85;;;;;;;5.47;92.15;101434.22;5148613;28;20068;-82
2021/04/12 07:29:51;;;;;;;6.95;2.85;;;;;;;5.38;92.22;101439.44;5135391;28;20041;-84
2021/04/12 07:32:49;;;;;;;6.50;2.95;;;;;;;5.29;92.09;101439.44;5141474;28;20897;-83
2021/04/12 07:36:00;;;;;;;11.52;3.20;;;;;;;5.14;93.75;101444.59;5150507;28;20055;-82
2021/04/12 07:38:36;;;;;;;9.88;2.67;;;;;;;5.27;92.77;101453.25;5163514;28;20045;-82
2021/04/12 07:41:44;;;;;;;12.60;3.22;;;;;;;5.17;92.04;101452.38;5170163;28;20049;-83
2021/04/12 07:44:35;;;;;;;10.27;3.22;;;;;;;5.59;91.60;101442.00;5162434;28;20037;-83
2021/04/12 07:47:38;;;;;;;9.52;2.92;;;;;;;5.73;90.02;101453.22;5162833;28;20033;-82
2021/04/12 07:50:17;;;;;;;9.85;2.58;;;;;;;6.13;88.84;101458.31;5175087;28;20076;-82
2021/04/12 07:53:06;;;;;;;11.80;3.67;;;;;;;5.85;89.10;101458.38;5173961;28;20033;-82
2021/04/12 07:56:01;;;;;;;10.05;2.78;;;;;;;6.16;89.08;101470.41;5173584;28;20054;-83
2021/04/12 07:58:53;;;;;;;7.72;2.53;;;;;;;6.73;87.55;101462.38;5175535;28;20039;-82
2021/04/12 08:01:57;;;;;;;7.57;2.63;;;;;;;6.05;85.86;101475.63;5179122;28;20029;-84
2021/04/12 08:04:55;;;;;;;8.50;2.72;;;;;;;7.03;83.23;101475.13;5161608;28;20053;-83
2021/04/12 08:08:03;;;;;;;11.15;2.30;;;;;;;7.37;82.62;101475.72;5163123;28;20033;-82
2021/04/12 08:10:34;;;;;;;8.18;2.08;;;;;;;7.32;81.71;101474.06;5162728;28;20050;-83
2021/04/12 08:13:32;;;;;;;7.30;2.15;;;;;;;6.92;83.86;101474.38;5165850;28;21298;-82
2021/04/12 08:16:29;;;;;;;13.95;2.65;;;;;;;6.69;83.23;101477.09;5178327;28;20033;-83
2021/04/12 08:19:24;;;;;;;8.70;2.33;;;;;;;6.72;84.26;101482.25;5177956;28;22912;-83
2021/04/12 08:22:16;;;;;;;6.80;2.08;;;;;;;6.62;82.85;101496.16;5179577;28;20017;-83
2021/04/12 08:25:24;;;;;;;9.68;2.55;;;;;;;6.50;83.63;101492.75;5178946;28;20033;-84
2021/04/12 08:28:09;;;;;;;10.10;2.45;;;;;;;6.77;83.61;101493.47;5185510;28;20641;-82
2021/04/12 08:31:07;;;;;;;9.40;2.50;;;;;;;7.28;82.40;101507.03;5187762;28;20109;-85
2021/04/12 08:34:22;;;;;;;8.75;2.30;;;;;;;7.65;79.98;101500.63;5189419;28;20046;-83
2021/04/12 08:37:04;;;;;;;7.80;2.33;;;;;;;8.10;77.65;101492.38;5189693;28;20032;-83
2021/04/12 08:39:49;;;;;;;6.35;2.08;;;;;;;8.42;77.74;101499.84;5173448;28;20037;-82
2021/04/12 08:42:47;;;;;;;8.10;2.28;;;;;;;8.64;75.98;101506.50;5174206;28;20111;-84
2021/04/12 08:46:02;;;;;;;9.98;2.60;;;;;;;8.61;74.90;101509.16;5185503;28;20030;-83
2021/04/12 08:48:44;;;;;;;8.63;2.65;;;;;;;8.88;74.34;101512.25;5124575;28;20045;-83
2021/04/12 08:51:27;;;;;;;10.55;3.00;;;;;;;8.29;75.17;101506.94;5188844;28;20029;-83
2021/04/12 08:54:06;;;;;;;33.40;15.73;;;;;;;8.68;76.34;101519.47;5187422;28;20033;-83
2021/04/12 08:57:05;;;;;;;39.70;15.85;;;;;;;8.21;77.58;101521.78;5187419;28;20040;-83
2021/04/12 08:59:54;;;;;;;29.95;11.68;;;;;;;9.44;73.14;101510.53;5187889;28;20025;-83
2021/04/12 09:02:55;;;;;;;43.80;16.38;;;;;;;10.98;69.78;101504.06;5185990;28;20059;-83
2021/04/12 09:05:39;;;;;;;32.97;13.77;;;;;;;11.85;64.76;101509.81;5192678;28;20033;-82
2021/04/12 09:08:32;;;;;;;20.20;8.15;;;;;;;10.70;68.03;101507.31;5191614;28;20035;-83
2021/04/12 09:11:12;;;;;;;10.27;3.85;;;;;;;9.95;70.54;101509.66;5193808;28;20076;-83
2021/04/12 09:14:07;;;;;;;10.85;4.50;;;;;;;9.35;70.14;101515.88;5191571;28;20034;-84
2021/04/12 09:17:25;;;;;;;6.72;2.88;;;;;;;9.16;70.65;101521.41;5183926;28;20062;-81
2021/04/12 09:20:04;;;;;;;10.30;4.10;;;;;;;11.05;65.52;101518.72;5179527;28;20038;-81
2021/04/12 09:23:13;;;;;;;9.18;3.40;;;;;;;11.29;63.32;101518.19;5183649;28;20037;-83
2021/04/12 09:26:28;;;;;;;9.70;3.25;;;;;;;11.31;64.24;101524.22;5182008;28;20030;-83
2021/04/12 09:29:16;;;;;;;8.75;2.70;;;;;;;11.32;62.78;101520.72;5085175;29;20747;-81
2021/04/12 09:31:58;;;;;;;8.13;2.30;;;;;;;11.45;63.52;101507.28;5100934;28;21042;-81
2021/04/12 09:34:34;;;;;;;9.88;3.08;;;;;;;10.50;66.66;101519.94;5165414;28;20076;-83
2021/04/12 09:37:38;;;;;;;9.30;2.10;;;;;;;9.10;67.87;101528.47;5188301;28;20033;-81
2021/04/12 09:40:41;;;;;;;9.45;3.13;;;;;;;9.25;69.96;101523.88;5187400;28;20017;-82
2021/04/12 09:43:33;;;;;;;18.73;6.82;;;;;;;8.87;69.32;101541.81;5191609;28;20033;-82
2021/04/12 09:46:29;;;;;;;16.10;7.28;;;;;;;9.40;69.32;101536.69;5191556;28;20116;-83
2021/04/12 09:49:18;;;;;;;9.90;2.22;;;;;;;9.05;67.46;101541.56;5148712;28;20046;-84
2021/04/12 09:52:24;;;;;;;11.60;5.93;;;;;;;8.70;69.14;101550.75;5190377;28;20024;-83
2021/04/12 09:55:12;;;;;;;12.80;5.32;;;;;;;8.23;69.73;101551.25;5155608;28;20129;-82
2021/04/12 09:58:30;;;;;;;19.80;9.65;;;;;;;8.30;68.77;101537.31;5167166;28;20034;-79
2021/04/12 10:01:03;;;;;;;15.68;8.13;;;;;;;8.02;71.21;101551.44;5160847;28;21266;-80
2021/04/12 10:03:53;;;;;;;11.57;6.30;;;;;;;7.94;71.60;101555.88;5187175;28;20148;-80
2021/04/12 10:07:01;;;;;;;15.95;7.97;;;;;;;7.77;71.49;101569.91;5184093;28;20034;-81
2021/04/12 10:09:37;;;;;;;7.47;2.75;;;;;;;7.96;71.90;101561.94;5183378;28;20030;-81
2021/04/12 10:12:36;;;;;;;16.85;7.43;;;;;;;7.96;71.64;101561.06;5178876;28;21356;-80
2021/04/12 10:15:28;;;;;;;11.27;3.13;;;;;;;8.04;72.51;101565.31;5183487;28;20045;-82
2021/04/12 10:18:27;;;;;;;6.75;2.47;;;;;;;8.59;70.36;101556.06;5187600;28;20137;-81
2021/04/12 10:21:03;;;;;;;8.27;1.77;;;;;;;9.22;67.47;101555.22;5187240;28;20662;-81
2021/04/12 10:23:36;;;;;;;9.98;2.63;;;;;;;9.16;67.48;101564.00;5187804;28;20044;-81
2021/04/12 10:26:32;;;;;;;9.35;2.90;;;;;;;8.55;65.89;101564.78;5187470;28;20845;-80
2021/04/12 10:29:15;;;;;;;9.60;3.07;;;;;;;8.46;67.12;101564.91;5189709;28;20033;-83
2021/04/12 10:32:05;;;;;;;8.05;2.67;;;;;;;8.59;67.29;101563.03;5189639;28;20049;-82
2021/04/12 10:34:43;;;;;;;6.80;2.40;;;;;;;8.78;66.25;101557.59;5189194;28;20026;-81
2021/04/12 10:38:04;;;;;;;7.47;2.47;;;;;;;8.97;66.92;101553.84;5183865;28;20033;-84
2021/04/12 10:40:52;;;;;;;9.65;3.40;;;;;;;8.98;67.64;101552.09;5154495;28;20052;-82
2021/04/12 10:43:31;;;;;;;7.50;1.63;;;;;;;8.53;65.51;101545.72;5197289;28;20022;-81
2021/04/12 10:46:15;;;;;;;8.50;2.75;;;;;;;8.75;67.58;101547.19;5189174;28;20037;-82
2021/04/12 10:49:10;;;;;;;8.30;2.70;;;;;;;8.75;66.35;101549.78;5197806;28;20037;-81
2021/04/12 10:51:48;;;;;;;9.68;3.10;;;;;;;8.75;66.05;101546.34;5198204;28;20033;-82
2021/04/12 10:54:43;;;;;;;7.10;2.25;;;;;;;8.74;64.02;101548.06;5195141;28;20029;-80
2021/04/12 10:57:27;;;;;;;14.05;5.28;;;;;;;8.64;64.49;101548.19;5178197;28;20982;-80
2021/04/12 11:00:25;;;;;;;10.80;2.95;;;;;;;8.48;66.01;101551.88;5198795;28;20164;-81
2021/04/12 11:03:17;;;;;;;9.82;2.50;;;;;;;8.61;66.38;101546.50;5192221;28;20498;-80
2021/04/12 11:06:04;;;;;;;11.77;2.95;;;;;;;8.84;65.50;101546.19;5190091;28;20055;-80
2021/04/12 11:08:55;;;;;;;12.02;4.68;;;;;;;8.89;66.67;101545.25;5183580;28;20037;-85
2021/04/12 11:11:56;;;;;;;16.08;6.35;;;;;;;8.64;66.10;101542.97;5194827;28;20033;-83
2021/04/12 11:15:12;;;;;;;6.38;2.67;;;;;;;8.14;64.17;101546.13;5174004;28;20025;-82
2021/04/12 11:18:02;;;;;;;6.28;2.70;;;;;;;8.34;65.46;101554.63;5176572;28;20057;-83
2021/04/12 11:20:41;;;;;;;5.32;2.17;;;;;;;8.60;64.06;101539.56;5190037;28;20057;-84
2021/04/12 11:23:35;;;;;;;5.78;2.20;;;;;;;8.88;64.09;101540.94;5188611;28;20045;-85
2021/04/12 11:26:29;;;;;;;4.10;1.50;;;;;;;9.16;64.05;101540.53;5185446;28;20063;-83
2021/04/12 11:29:21;;;;;;;6.60;1.60;;;;;;;9.16;63.31;101534.47;5185993;28;20904;-85
2021/04/12 11:32:13;;;;;;;11.15;1.98;;;;;;;9.12;63.86;101527.56;5192373;28;20025;-82
2021/04/12 11:35:05;;;;;;;5.70;1.50;;;;;;;9.25;63.94;101531.69;5195051;28;20048;-82
2021/04/12 11:38:00;;;;;;;7.00;4.25;;;;;;;8.80;63.60;101550.59;5197802;28;20044;-84
2021/04/12 11:40:35;;;;;;;4.68;1.30;;;;;;;8.95;62.58;101550.41;5198978;28;20032;-83
2021/04/12 11:43:16;;;;;;;4.38;1.20;;;;;;;9.09;64.12;101538.03;5199516;28;20021;-84
2021/04/12 11:46:08;;;;;;;8.48;1.20;;;;;;;8.91;63.63;101550.47;5197592;28;20499;-83
2021/04/12 11:48:47;;;;;;;4.80;1.10;;;;;;;9.13;65.35;101550.16;5197338;28;20539;-84
2021/04/12 11:51:32;;;;;;;8.90;1.30;;;;;;;9.23;62.76;101554.34;5198122;28;20025;-83
2021/04/12 11:54:05;;;;;;;5.57;1.23;;;;;;;9.21;62.81;101558.72;5195831;28;20045;-83
2021/04/12 11:57:27;;;;;;;7.15;1.00;;;;;;;9.22;61.07;101553.50;5199158;28;20114;-83
2021/04/12 12:00:28;;;;;;;4.75;1.50;;;;;;;9.34;62.55;101555.06;5162410;28;20038;-83
2021/04/12 12:03:19;;;;;;;4.82;1.00;;;;;;;9.63;61.34;101558.09;5159738;28;20128;-83
2021/04/12 12:05:52;;;;;;;3.33;1.27;;;;;;;9.43;59.60;101557.50;5200025;28;20037;-83
2021/04/12 12:08:35;;;;;;;3.10;0.90;;;;;;;9.19;59.07;101568.31;5201656;28;20065;-83
2021/04/12 12:11:15;;;;;;;4.30;0.77;;;;;;;9.22;62.00;101561.31;5202622;28;20037;-82
2021/04/12 12:13:56;;;;;;;3.72;0.77;;;;;;;9.04;60.88;101565.91;5201620;28;20108;-83
2021/04/12 12:16:40;;;;;;;12.57;4.63;;;;;;;8.78;62.26;101570.63;5199838;28;20033;-83
2021/04/12 12:19:32;;;;;;;5.18;1.55;;;;;;;8.91;62.01;101574.78;5200770;28;20065;-83
2021/04/12 12:22:21;;;;;;;5.72;1.13;;;;;;;9.10;61.35;101570.19;5198977;28;20034;-82
2021/04/12 12:25:04;;;;;;;3.92;1.00;;;;;;;9.35;62.23;101572.44;5198299;28;20029;-82
2021/04/12 12:28:08;;;;;;;3.28;0.90;;;;;;;9.57;60.52;101569.47;5199613;28;20462;-83
2021/04/12 12:31:06;;;;;;;3.67;0.90;;;;;;;9.51;61.29;101563.50;5192922;28;20068;-83
2021/04/12 12:33:46;;;;;;;3.25;1.00;;;;;;;9.50;61.88;101561.75;5197821;28;20037;-83
2021/04/12 12:36:28;;;;;;;2.83;0.98;;;;;;;9.55;61.55;101562.56;5197953;28;20041;-83
2021/04/12 12:39:21;;;;;;;5.00;1.55;;;;;;;9.87;61.10;101547.22;5197464;28;20029;-82
2021/04/12 12:41:52;;;;;;;3.88;1.00;;;;;;;10.18;60.15;101548.44;5183348;28;20072;-83
2021/04/12 12:44:26;;;;;;;2.53;0.85;;;;;;;10.01;59.12;101545.25;5198581;28;20022;-82
2021/04/12 12:47:04;;;;;;;4.25;0.80;;;;;;;9.96;59.04;101532.25;5184382;28;20029;-82
2021/04/12 12:49:39;;;;;;;2.78;1.02;;;;;;;10.16;60.82;101547.63;5199563;28;20036;-81
2021/04/12 12:52:21;;;;;;;8.85;1.33;;;;;;;10.04;60.78;101540.00;5200024;28;20025;-84
2021/04/12 12:54:53;;;;;;;7.45;1.13;;;;;;;9.84;59.79;101549.91;5196589;28;20721;-83
2021/04/12 12:57:37;;;;;;;6.05;1.35;;;;;;;10.10;61.07;101558.16;5203502;28;20060;-83
2021/04/12 13:00:15;;;;;;;5.40;0.82;;;;;;;9.92;59.85;101555.81;5190554;28;20037;-83
2021/04/12 13:02:46;;;;;;;3.47;0.80;;;;;;;9.84;61.14;101557.72;5203198;28;20087;-84
2021/04/12 13:05:24;;;;;;;2.70;0.90;;;;;;;9.88;61.87;101559.38;5205767;28;20033;-83
2021/04/12 13:08:07;;;;;;;4.10;0.90;;;;;;;9.92;59.98;101561.06;5207390;28;20029;-84
2021/04/12 13:10:40;;;;;;;5.18;0.80;;;;;;;10.01;60.35;101546.13;5205705;28;20021;-83
2021/04/12 13:13:25;;;;;;;7.75;3.67;;;;;;;9.69;59.43;101551.00;5185110;28;20040;-83
2021/04/12 13:16:09;;;;;;;8.95;2.67;;;;;;;9.24;56.96;101558.66;5198055;28;20049;-84
2021/04/12 13:18:41;;;;;;;16.15;5.88;;;;;;;9.47;57.24;101551.38;5200505;28;20029;-83